<?xml version="1.0" encoding="UTF-8"?>
<gpx
version="1.1"
creator="Kashmir3D 9.310 - http://www.kashmir3d.com"
xmlns:xsi="http://www.w3.org/2001/XMLSchema-instance"
xmlns="http://www.topografix.com/GPX/1/1"
xmlns:kashmir3d="http://www.kashmir3d.com/namespace/kashmir3d"
xsi:schemaLocation="http://www.topografix.com/GPX/1/1 http://www.topografix.com/GPX/1/1/gpx.xsd
	http://www.kashmir3d.com/namespace/kashmir3d http://www.kashmir3d.com/namespace/kashmir3d.xsd">
<trk>
 <name>甘利山</name>
 <number>1</number>
 <extensions>
 <kashmir3d:line_color>0000ff</kashmir3d:line_color>
 <kashmir3d:line_size>3</kashmir3d:line_size>
 <kashmir3d:line_style>1</kashmir3d:line_style>
 <kashmir3d:icon>901001</kashmir3d:icon>
 </extensions>
<trkseg>
<trkpt lat="35.685121" lon="138.379805">
 <ele>-0.001000</ele>
 <time>2019-07-22T06:46:03Z</time>
</trkpt>
<trkpt lat="35.684769" lon="138.380020">
 <ele>-0.001000</ele>
 <time>2019-07-22T06:46:13Z</time>
</trkpt>
<trkpt lat="35.684477" lon="138.380159">
 <ele>-0.001000</ele>
 <time>2019-07-22T06:46:23Z</time>
</trkpt>
<trkpt lat="35.684245" lon="138.380320">
 <ele>-0.001000</ele>
 <time>2019-07-22T06:46:33Z</time>
</trkpt>
<trkpt lat="35.683988" lon="138.380460">
 <ele>-0.001000</ele>
 <time>2019-07-22T06:46:43Z</time>
</trkpt>
<trkpt lat="35.683816" lon="138.380470">
 <ele>-0.001000</ele>
 <time>2019-07-22T06:46:53Z</time>
</trkpt>
<trkpt lat="35.683619" lon="138.380427">
 <ele>-0.001000</ele>
 <time>2019-07-22T06:47:03Z</time>
</trkpt>
<trkpt lat="35.683404" lon="138.380406">
 <ele>-0.001000</ele>
 <time>2019-07-22T06:47:13Z</time>
</trkpt>
<trkpt lat="35.683241" lon="138.380417">
 <ele>-0.001000</ele>
 <time>2019-07-22T06:47:23Z</time>
</trkpt>
<trkpt lat="35.683138" lon="138.380460">
 <ele>-0.001000</ele>
 <time>2019-07-22T06:47:33Z</time>
</trkpt>
<trkpt lat="35.683035" lon="138.380556">
 <ele>-0.001000</ele>
 <time>2019-07-22T06:47:43Z</time>
</trkpt>
<trkpt lat="35.682898" lon="138.380588">
 <ele>-0.001000</ele>
 <time>2019-07-22T06:47:53Z</time>
</trkpt>
<trkpt lat="35.682778" lon="138.380492">
 <ele>-0.001000</ele>
 <time>2019-07-22T06:48:03Z</time>
</trkpt>
<trkpt lat="35.682692" lon="138.380245">
 <ele>-0.001000</ele>
 <time>2019-07-22T06:48:13Z</time>
</trkpt>
<trkpt lat="35.682615" lon="138.380052">
 <ele>-0.001000</ele>
 <time>2019-07-22T06:48:23Z</time>
</trkpt>
<trkpt lat="35.682494" lon="138.379934">
 <ele>-0.001000</ele>
 <time>2019-07-22T06:48:33Z</time>
</trkpt>
<trkpt lat="35.682409" lon="138.379709">
 <ele>-0.001000</ele>
 <time>2019-07-22T06:48:43Z</time>
</trkpt>
<trkpt lat="35.682280" lon="138.379601">
 <ele>-0.001000</ele>
 <time>2019-07-22T06:48:53Z</time>
</trkpt>
<trkpt lat="35.682142" lon="138.379451">
 <ele>-0.001000</ele>
 <time>2019-07-22T06:49:03Z</time>
</trkpt>
<trkpt lat="35.682074" lon="138.379419">
 <ele>-0.001000</ele>
 <time>2019-07-22T06:49:13Z</time>
</trkpt>
<trkpt lat="35.681945" lon="138.379494">
 <ele>-0.001000</ele>
 <time>2019-07-22T06:49:23Z</time>
</trkpt>
<trkpt lat="35.681782" lon="138.379483">
 <ele>-0.001000</ele>
 <time>2019-07-22T06:49:33Z</time>
</trkpt>
<trkpt lat="35.681627" lon="138.379397">
 <ele>-0.001000</ele>
 <time>2019-07-22T06:49:43Z</time>
</trkpt>
<trkpt lat="35.681559" lon="138.379301">
 <ele>-0.001000</ele>
 <time>2019-07-22T06:49:53Z</time>
</trkpt>
<trkpt lat="35.681610" lon="138.379086">
 <ele>-0.001000</ele>
 <time>2019-07-22T06:50:03Z</time>
</trkpt>
<trkpt lat="35.681636" lon="138.378807">
 <ele>-0.001000</ele>
 <time>2019-07-22T06:50:13Z</time>
</trkpt>
<trkpt lat="35.681645" lon="138.378604">
 <ele>-0.001000</ele>
 <time>2019-07-22T06:50:23Z</time>
</trkpt>
<trkpt lat="35.681645" lon="138.378453">
 <ele>-0.001000</ele>
 <time>2019-07-22T06:50:33Z</time>
</trkpt>
<trkpt lat="35.681585" lon="138.378271">
 <ele>-0.001000</ele>
 <time>2019-07-22T06:50:43Z</time>
</trkpt>
<trkpt lat="35.681550" lon="138.378110">
 <ele>-0.001000</ele>
 <time>2019-07-22T06:50:53Z</time>
</trkpt>
<trkpt lat="35.681533" lon="138.377917">
 <ele>-0.001000</ele>
 <time>2019-07-22T06:51:03Z</time>
</trkpt>
<trkpt lat="35.681516" lon="138.377681">
 <ele>-0.001000</ele>
 <time>2019-07-22T06:51:13Z</time>
</trkpt>
<trkpt lat="35.681473" lon="138.377498">
 <ele>-0.001000</ele>
 <time>2019-07-22T06:51:23Z</time>
</trkpt>
<trkpt lat="35.681370" lon="138.377305">
 <ele>-0.001000</ele>
 <time>2019-07-22T06:51:33Z</time>
</trkpt>
<trkpt lat="35.681241" lon="138.377123">
 <ele>-0.001000</ele>
 <time>2019-07-22T06:51:43Z</time>
</trkpt>
<trkpt lat="35.681121" lon="138.376973">
 <ele>-0.001000</ele>
 <time>2019-07-22T06:51:53Z</time>
</trkpt>
<trkpt lat="35.681044" lon="138.376823">
 <ele>-0.001000</ele>
 <time>2019-07-22T06:52:03Z</time>
</trkpt>
<trkpt lat="35.681027" lon="138.376694">
 <ele>-0.001000</ele>
 <time>2019-07-22T06:52:13Z</time>
</trkpt>
<trkpt lat="35.681027" lon="138.376554">
 <ele>-0.001000</ele>
 <time>2019-07-22T06:52:23Z</time>
</trkpt>
<trkpt lat="35.681112" lon="138.376329">
 <ele>-0.001000</ele>
 <time>2019-07-22T06:52:33Z</time>
</trkpt>
<trkpt lat="35.681198" lon="138.376232">
 <ele>-0.001000</ele>
 <time>2019-07-22T06:52:43Z</time>
</trkpt>
<trkpt lat="35.681417" lon="138.376389">
 <ele>1742.000000</ele>
 <time>2019-07-22T06:52:53Z</time>
</trkpt>
<trkpt lat="35.681198" lon="138.376222">
 <ele>-0.001000</ele>
 <time>2019-07-22T06:53:03Z</time>
</trkpt>
<trkpt lat="35.681121" lon="138.376329">
 <ele>-0.001000</ele>
 <time>2019-07-22T06:53:13Z</time>
</trkpt>
<trkpt lat="35.681035" lon="138.376533">
 <ele>-0.001000</ele>
 <time>2019-07-22T06:53:23Z</time>
</trkpt>
<trkpt lat="35.681035" lon="138.376694">
 <ele>-0.001000</ele>
 <time>2019-07-22T06:53:33Z</time>
</trkpt>
<trkpt lat="35.681035" lon="138.376801">
 <ele>-0.001000</ele>
 <time>2019-07-22T06:53:43Z</time>
</trkpt>
<trkpt lat="35.681130" lon="138.376962">
 <ele>-0.001000</ele>
 <time>2019-07-22T06:53:53Z</time>
</trkpt>
<trkpt lat="35.681241" lon="138.377123">
 <ele>-0.001000</ele>
 <time>2019-07-22T06:54:03Z</time>
</trkpt>
<trkpt lat="35.681370" lon="138.377284">
 <ele>-0.001000</ele>
 <time>2019-07-22T06:54:13Z</time>
</trkpt>
<trkpt lat="35.681482" lon="138.377498">
 <ele>-0.001000</ele>
 <time>2019-07-22T06:54:23Z</time>
</trkpt>
<trkpt lat="35.681507" lon="138.377670">
 <ele>-0.001000</ele>
 <time>2019-07-22T06:54:33Z</time>
</trkpt>
<trkpt lat="35.681542" lon="138.377928">
 <ele>-0.001000</ele>
 <time>2019-07-22T06:54:43Z</time>
</trkpt>
<trkpt lat="35.681550" lon="138.378099">
 <ele>-0.001000</ele>
 <time>2019-07-22T06:54:53Z</time>
</trkpt>
<trkpt lat="35.681585" lon="138.378271">
 <ele>-0.001000</ele>
 <time>2019-07-22T06:55:03Z</time>
</trkpt>
<trkpt lat="35.681653" lon="138.378453">
 <ele>-0.001000</ele>
 <time>2019-07-22T06:55:13Z</time>
</trkpt>
<trkpt lat="35.681645" lon="138.378604">
 <ele>-0.001000</ele>
 <time>2019-07-22T06:55:23Z</time>
</trkpt>
<trkpt lat="35.681636" lon="138.378818">
 <ele>-0.001000</ele>
 <time>2019-07-22T06:55:33Z</time>
</trkpt>
<trkpt lat="35.681619" lon="138.379097">
 <ele>-0.001000</ele>
 <time>2019-07-22T06:55:43Z</time>
</trkpt>
<trkpt lat="35.681550" lon="138.379312">
 <ele>-0.001000</ele>
 <time>2019-07-22T06:55:53Z</time>
</trkpt>
<trkpt lat="35.681636" lon="138.379408">
 <ele>-0.001000</ele>
 <time>2019-07-22T06:56:03Z</time>
</trkpt>
<trkpt lat="35.681782" lon="138.379473">
 <ele>-0.001000</ele>
 <time>2019-07-22T06:56:13Z</time>
</trkpt>
<trkpt lat="35.681928" lon="138.379505">
 <ele>-0.001000</ele>
 <time>2019-07-22T06:56:23Z</time>
</trkpt>
<trkpt lat="35.682065" lon="138.379419">
 <ele>-0.001000</ele>
 <time>2019-07-22T06:56:33Z</time>
</trkpt>
<trkpt lat="35.682134" lon="138.379451">
 <ele>-0.001000</ele>
 <time>2019-07-22T06:56:43Z</time>
</trkpt>
<trkpt lat="35.682271" lon="138.379591">
 <ele>-0.001000</ele>
 <time>2019-07-22T06:56:53Z</time>
</trkpt>
<trkpt lat="35.682409" lon="138.379698">
 <ele>-0.001000</ele>
 <time>2019-07-22T06:57:03Z</time>
</trkpt>
<trkpt lat="35.682486" lon="138.379934">
 <ele>-0.001000</ele>
 <time>2019-07-22T06:57:13Z</time>
</trkpt>
<trkpt lat="35.682615" lon="138.380063">
 <ele>-0.001000</ele>
 <time>2019-07-22T06:57:23Z</time>
</trkpt>
<trkpt lat="35.682683" lon="138.380245">
 <ele>-0.001000</ele>
 <time>2019-07-22T06:57:33Z</time>
</trkpt>
<trkpt lat="35.682778" lon="138.380481">
 <ele>-0.001000</ele>
 <time>2019-07-22T06:57:43Z</time>
</trkpt>
<trkpt lat="35.682889" lon="138.380588">
 <ele>-0.001000</ele>
 <time>2019-07-22T06:57:53Z</time>
</trkpt>
<trkpt lat="35.682778" lon="138.380835">
 <ele>-0.001000</ele>
 <time>2019-07-22T06:58:03Z</time>
</trkpt>
<trkpt lat="35.682735" lon="138.381082">
 <ele>-0.001000</ele>
 <time>2019-07-22T06:58:13Z</time>
</trkpt>
<trkpt lat="35.682735" lon="138.381264">
 <ele>-0.001000</ele>
 <time>2019-07-22T06:58:23Z</time>
</trkpt>
<trkpt lat="35.682829" lon="138.381457">
 <ele>-0.001000</ele>
 <time>2019-07-22T06:58:33Z</time>
</trkpt>
<trkpt lat="35.682924" lon="138.381543">
 <ele>-0.001000</ele>
 <time>2019-07-22T06:58:43Z</time>
</trkpt>
<trkpt lat="35.682821" lon="138.381447">
 <ele>-0.001000</ele>
 <time>2019-07-22T06:58:53Z</time>
</trkpt>
<trkpt lat="35.682735" lon="138.381254">
 <ele>-0.001000</ele>
 <time>2019-07-22T06:59:03Z</time>
</trkpt>
<trkpt lat="35.682735" lon="138.381071">
 <ele>-0.001000</ele>
 <time>2019-07-22T06:59:13Z</time>
</trkpt>
<trkpt lat="35.682786" lon="138.380846">
 <ele>-0.001000</ele>
 <time>2019-07-22T06:59:23Z</time>
</trkpt>
<trkpt lat="35.682898" lon="138.380599">
 <ele>-0.001000</ele>
 <time>2019-07-22T06:59:33Z</time>
</trkpt>
<trkpt lat="35.683035" lon="138.380545">
 <ele>-0.001000</ele>
 <time>2019-07-22T06:59:43Z</time>
</trkpt>
<trkpt lat="35.683138" lon="138.380460">
 <ele>-0.001000</ele>
 <time>2019-07-22T06:59:53Z</time>
</trkpt>
<trkpt lat="35.683241" lon="138.380406">
 <ele>-0.001000</ele>
 <time>2019-07-22T07:00:03Z</time>
</trkpt>
<trkpt lat="35.683396" lon="138.380395">
 <ele>-0.001000</ele>
 <time>2019-07-22T07:00:13Z</time>
</trkpt>
<trkpt lat="35.683627" lon="138.380417">
 <ele>-0.001000</ele>
 <time>2019-07-22T07:00:23Z</time>
</trkpt>
<trkpt lat="35.683825" lon="138.380470">
 <ele>-0.001000</ele>
 <time>2019-07-22T07:00:33Z</time>
</trkpt>
<trkpt lat="35.683988" lon="138.380460">
 <ele>-0.001000</ele>
 <time>2019-07-22T07:00:43Z</time>
</trkpt>
<trkpt lat="35.684254" lon="138.380309">
 <ele>-0.001000</ele>
 <time>2019-07-22T07:00:53Z</time>
</trkpt>
<trkpt lat="35.684468" lon="138.380159">
 <ele>-0.001000</ele>
 <time>2019-07-22T07:01:03Z</time>
</trkpt>
<trkpt lat="35.684760" lon="138.380030">
 <ele>-0.001000</ele>
 <time>2019-07-22T07:01:13Z</time>
</trkpt>
<trkpt lat="35.685121" lon="138.379805">
 <ele>-0.001000</ele>
 <time>2019-07-22T07:01:23Z</time>
</trkpt>
</trkseg>
</trk>
</gpx>
